createdAt,value
2022-08-28T00:12:23.523Z,16.3
2022-08-28T00:32:24.594Z,16.1
2022-08-28T00:52:25.718Z,15.8
2022-08-28T01:12:27.283Z,15.4
2022-08-28T01:22:27.413Z,15.3
2022-08-28T01:32:27.756Z,15
2022-08-28T01:42:28.286Z,14.8
2022-08-28T02:12:30.237Z,14.4
2022-08-28T02:32:31.502Z,14.1
2022-08-28T02:42:32.204Z,13.9
2022-08-28T02:52:32.410Z,13.8
2022-08-28T03:02:32.790Z,13.7
2022-08-28T03:22:33.966Z,13.6
2022-08-28T03:32:34.069Z,13.7
2022-08-28T03:52:35.404Z,13.8
2022-08-28T04:02:35.967Z,13.8
2022-08-28T04:12:36.434Z,13.8
2022-08-28T04:22:37.116Z,13.7
2022-08-28T04:32:37.879Z,13.6
2022-08-28T04:42:38.797Z,13.5
2022-08-28T04:52:38.999Z,13.4
2022-08-28T05:02:39.293Z,13.4
2022-08-28T05:12:39.895Z,13.5
2022-08-28T05:22:40.129Z,13.5
2022-08-28T05:32:40.984Z,13.6
2022-08-28T05:42:41.525Z,13.7
2022-08-28T05:52:41.606Z,13.7
2022-08-28T06:02:42.239Z,14
2022-08-28T06:12:42.816Z,14.3
2022-08-28T06:22:43.429Z,14.8
2022-08-28T06:32:44.134Z,15
2022-08-28T06:42:44.782Z,15.4
2022-08-28T06:52:45.164Z,15.7
2022-08-28T07:02:45.575Z,16.1
2022-08-28T07:42:47.151Z,18.6
2022-08-28T08:52:50.610Z,19
2022-08-28T09:02:51.051Z,20.3
2022-08-28T10:52:56.532Z,22.8
2022-08-28T12:23:01.472Z,24.2
2022-08-28T12:33:02.034Z,24.4
2022-08-28T12:43:02.801Z,23.7
2022-08-28T12:53:03.601Z,24.2
2022-08-28T13:03:04.509Z,24.7
2022-08-28T13:13:05.921Z,24.7
2022-08-28T13:23:06.163Z,24.5
2022-08-28T13:33:06.970Z,25.1
2022-08-28T13:53:07.701Z,23.7
2022-08-28T14:03:08.133Z,24.9
2022-08-28T14:13:08.656Z,25.1
2022-08-28T14:23:09.705Z,25.2
2022-08-28T14:33:09.946Z,25.3
2022-08-28T14:43:10.773Z,24.8
2022-08-28T14:53:10.879Z,25.5
2022-08-28T15:53:15.427Z,24.5
2022-08-28T16:03:15.902Z,23.5
2022-08-28T16:13:16.717Z,22.9
2022-08-28T16:14:00.424Z,22.9
2022-08-28T16:23:22.716Z,23.4
2022-08-28T16:43:23.557Z,23.9
2022-08-28T16:53:27.070Z,22.7
2022-08-28T17:23:27.056Z,21
2022-08-28T17:33:27.543Z,20.9
2022-08-28T17:43:28.480Z,20.6
2022-08-28T18:03:29.329Z,20
2022-08-28T18:13:29.424Z,19.7
2022-08-28T18:23:29.550Z,19.4
2022-08-28T18:43:29.852Z,18.8
2022-08-28T18:53:30.065Z,18.6
2022-08-28T19:03:31.079Z,18.3
2022-08-28T19:13:31.324Z,18.1
2022-08-28T19:33:32.482Z,17.8
2022-08-28T19:43:41.595Z,17.6
2022-08-28T19:53:32.981Z,17.4
2022-08-28T20:13:33.914Z,16.9
2022-08-28T20:23:34.143Z,16.7
2022-08-28T21:03:36.646Z,15.9
2022-08-28T21:33:38.701Z,15.4
2022-08-28T21:43:39.470Z,15.2
2022-08-28T22:03:40.208Z,14.8
2022-08-28T22:13:40.277Z,14.8
2022-08-28T22:23:41.019Z,14.7
2022-08-28T22:33:41.307Z,14.6
2022-08-28T22:53:41.878Z,14.4
2022-08-28T23:03:42.421Z,14.3
2022-08-28T23:23:43.893Z,14.1
2022-08-28T23:33:44.913Z,14
